Terminal Aerodrome Forecast
Issued by NWS Central Illinois

Home | Current Version | Previous Version | Text Only | Print | Product List | Glossary On
Versions: 1 2 3 4 5 6 7 8 9 10 11 12 13 14 15 16 17 18 19 20 21 22 23 24
091
FTUS43 KILX 171847 AAB
TAFPIA
TAF AMD
KPIA 171847Z 1719/1818 20009KT 1/2SM SN SCT005
     FM172000 25008KT P6SM VCSH BKN010
      TEMPO 1720/1722 3SM -SN OVC007
     FM172300 26007KT P6SM BKN040
     FM180700 VRB03KT P6SM SCT012
     FM181400 17012G21KT P6SM FEW250=

USA.gov is the U.S. government's official web portal to all federal, state and local government web resources and services.